Time;durP1;ratioP1;P1;durP2;ratioP2;P2;SDS_P1;SDS_P2;PMS_P1;PMS_P2;Temp;Humidity;BMP_temperature;BMP_pressure;BME280_temperature;BME280_humidity;BME280_pressure;Samples;Min_cycle;Max_cycle;Signal;HPM_P1;HPM_P2
2022/04/09 00:00:33;;;;;;;9.65;6.43;;;5.40;99.90;;;;;;5028895;28;20049;-69
2022/04/09 00:02:59;;;;;;;8.75;6.15;;;5.40;99.90;;;;;;5028965;28;20041;-68
2022/04/09 00:05:26;;;;;;;7.65;5.80;;;5.30;99.90;;;;;;5029360;28;20075;-68
2022/04/09 00:07:52;;;;;;;10.63;5.82;;;5.30;99.90;;;;;;5031720;28;20037;-68
2022/04/09 00:10:18;;;;;;;11.73;6.57;;;5.30;99.90;;;;;;5031746;28;20021;-68
2022/04/09 00:12:47;;;;;;;8.98;6.00;;;5.30;99.90;;;;;;5030468;28;20033;-68
2022/04/09 00:15:14;;;;;;;7.30;5.72;;;5.20;99.90;;;;;;5028681;28;20171;-68
2022/04/09 00:17:41;;;;;;;11.43;6.13;;;5.20;99.90;;;;;;5028650;28;20029;-67
2022/04/09 00:20:09;;;;;;;9.52;6.28;;;5.10;99.90;;;;;;5028628;28;20109;-68
2022/04/09 00:22:36;;;;;;;10.10;5.65;;;5.10;99.90;;;;;;5028259;28;20053;-68
2022/04/09 00:25:04;;;;;;;6.75;5.07;;;5.00;99.90;;;;;;5028244;28;20060;-68
2022/04/09 00:27:30;;;;;;;8.38;5.28;;;5.00;99.90;;;;;;5028096;28;20427;-68
2022/04/09 00:29:55;;;;;;;7.57;4.70;;;5.00;99.90;;;;;;5028382;28;20056;-68
2022/04/09 00:32:21;;;;;;;6.60;4.75;;;5.00;99.90;;;;;;4994435;28;20057;-67
2022/04/09 00:34:46;;;;;;;7.28;4.60;;;4.90;99.90;;;;;;5029066;28;20029;-68
2022/04/09 00:37:12;;;;;;;9.50;4.38;;;4.90;99.90;;;;;;5031156;28;20408;-68
2022/04/09 00:39:38;;;;;;;8.10;4.78;;;4.90;99.90;;;;;;5013313;28;20018;-68
2022/04/09 00:42:04;;;;;;;8.48;4.95;;;4.90;99.90;;;;;;5031365;28;20033;-68
2022/04/09 00:44:31;;;;;;;6.22;3.85;;;4.80;99.90;;;;;;5031360;28;20017;-68
2022/04/09 00:46:57;;;;;;;8.30;4.32;;;4.90;99.90;;;;;;5031104;28;20420;-68
2022/04/09 00:49:24;;;;;;;6.25;4.15;;;4.80;99.90;;;;;;5031245;28;20049;-68
2022/04/09 00:51:51;;;;;;;5.97;3.80;;;4.70;99.90;;;;;;5012964;28;20547;-68
2022/04/09 00:54:19;;;;;;;6.28;4.55;;;4.70;99.90;;;;;;5031013;28;20463;-68
2022/04/09 00:56:47;;;;;;;8.50;4.65;;;4.50;99.90;;;;;;5030874;28;20480;-68
2022/04/09 00:59:14;;;;;;;5.03;4.07;;;4.40;99.90;;;;;;5031029;28;20033;-68
2022/04/09 01:01:41;;;;;;;7.88;4.93;;;4.30;99.90;;;;;;5030213;28;20021;-68
2022/04/09 01:04:08;;;;;;;5.80;3.92;;;4.20;99.90;;;;;;5027654;28;20489;-68
2022/04/09 01:06:35;;;;;;;6.88;4.25;;;4.00;99.90;;;;;;5027945;28;20021;-68
2022/04/09 01:09:02;;;;;;;7.70;4.22;;;3.90;99.90;;;;;;5031082;28;20029;-68
2022/04/09 01:11:28;;;;;;;7.63;4.32;;;3.80;99.90;;;;;;5029142;28;20755;-68
2022/04/09 01:13:53;;;;;;;6.32;4.70;;;3.80;99.90;;;;;;5027678;28;20024;-68
2022/04/09 01:16:19;;;;;;;7.43;4.25;;;3.70;99.90;;;;;;5027813;28;20033;-68
2022/04/09 01:18:45;;;;;;;8.02;4.28;;;3.70;99.90;;;;;;5031031;28;20104;-68
2022/04/09 01:21:11;;;;;;;6.28;4.25;;;3.70;99.90;;;;;;5030687;28;20057;-70
2022/04/09 01:23:37;;;;;;;5.43;3.58;;;3.70;99.90;;;;;;5031993;28;20088;-68
2022/04/09 01:26:05;;;;;;;5.80;3.75;;;3.80;99.90;;;;;;5030250;28;20056;-68
2022/04/09 01:28:32;;;;;;;4.85;3.45;;;3.80;99.90;;;;;;5030443;28;20025;-68
2022/04/09 01:30:58;;;;;;;5.10;3.38;;;3.90;99.90;;;;;;5030388;28;20116;-68
2022/04/09 01:33:24;;;;;;;5.88;3.53;;;3.90;99.90;;;;;;5030283;28;20104;-68
2022/04/09 01:35:51;;;;;;;5.10;3.28;;;4.00;99.90;;;;;;5030302;28;20029;-68
2022/04/09 01:38:17;;;;;;;5.88;3.67;;;4.10;99.90;;;;;;5030144;28;20100;-67
2022/04/09 01:40:43;;;;;;;5.32;3.30;;;4.10;99.90;;;;;;5030357;28;20101;-68
2022/04/09 01:43:09;;;;;;;5.32;3.17;;;4.10;99.90;;;;;;5029707;28;20037;-68
2022/04/09 01:45:36;;;;;;;5.00;2.90;;;4.00;99.90;;;;;;5029189;28;20028;-66
2022/04/09 01:48:01;;;;;;;4.63;3.10;;;4.00;99.90;;;;;;5026704;28;20036;-67
2022/04/09 01:50:27;;;;;;;5.55;3.30;;;4.00;99.90;;;;;;5027050;28;20101;-67
2022/04/09 01:52:54;;;;;;;4.72;3.03;;;4.00;99.90;;;;;;5029612;28;20113;-68
2022/04/09 01:55:20;;;;;;;5.03;3.38;;;4.10;99.90;;;;;;5029969;28;20043;-67
2022/04/09 01:57:47;;;;;;;4.45;2.85;;;4.00;99.90;;;;;;5030335;28;20034;-67
2022/04/09 02:00:16;;;;;;;8.93;3.90;;;4.00;99.90;;;;;;5030041;28;20061;-68
2022/04/09 02:02:42;;;;;;;4.93;3.35;;;4.00;99.90;;;;;;5029647;28;20037;-68
2022/04/09 02:05:11;;;;;;;5.13;3.67;;;4.00;99.90;;;;;;5029843;28;20029;-68
2022/04/09 02:07:38;;;;;;;6.95;3.78;;;4.00;99.90;;;;;;5029627;28;20112;-68
2022/04/09 02:10:04;;;;;;;6.22;3.67;;;3.90;99.90;;;;;;5029546;28;20064;-67
2022/04/09 02:12:31;;;;;;;4.95;3.55;;;3.80;99.90;;;;;;5029816;28;20025;-68
2022/04/09 02:14:57;;;;;;;8.20;4.05;;;3.70;99.90;;;;;;5030109;28;20079;-67
2022/04/09 02:17:22;;;;;;;7.20;3.75;;;3.60;99.90;;;;;;5029690;28;20105;-68
2022/04/09 02:19:48;;;;;;;5.32;3.38;;;3.60;99.90;;;;;;5029804;28;20391;-67
2022/04/09 02:22:14;;;;;;;5.80;3.42;;;3.50;99.90;;;;;;5031064;28;20041;-68
2022/04/09 02:24:43;;;;;;;5.70;3.92;;;3.40;99.90;;;;;;5029386;28;20037;-67
2022/04/09 02:27:10;;;;;;;5.80;3.60;;;3.40;99.90;;;;;;5029467;28;20109;-67
2022/04/09 02:29:36;;;;;;;5.57;3.60;;;3.30;99.90;;;;;;5029580;28;20022;-67
2022/04/09 02:32:03;;;;;;;4.97;3.70;;;3.20;99.90;;;;;;5029528;28;20405;-67
2022/04/09 02:34:29;;;;;;;7.25;3.83;;;3.10;99.90;;;;;;5029826;28;20119;-67
2022/04/09 02:36:55;;;;;;;7.00;4.05;;;3.00;99.90;;;;;;5029428;28;20076;-67
2022/04/09 02:39:21;;;;;;;5.60;3.92;;;2.90;99.90;;;;;;5029620;28;20483;-67
2022/04/09 02:41:50;;;;;;;6.97;4.38;;;2.90;99.90;;;;;;5029164;28;20069;-67
2022/04/09 02:44:17;;;;;;;7.28;4.10;;;2.90;99.90;;;;;;5029231;28;20030;-67
2022/04/09 02:46:43;;;;;;;6.70;4.15;;;2.80;99.90;;;;;;5029236;28;20473;-67
2022/04/09 02:49:09;;;;;;;6.95;3.63;;;2.80;99.90;;;;;;5029486;28;20036;-67
2022/04/09 02:51:34;;;;;;;5.38;3.88;;;2.80;99.90;;;;;;5029159;28;20033;-67
2022/04/09 02:54:00;;;;;;;6.65;4.22;;;2.70;99.90;;;;;;5029452;28;20025;-67
2022/04/09 02:56:25;;;;;;;8.23;4.20;;;2.70;99.90;;;;;;5011704;28;20022;-67
2022/04/09 02:58:51;;;;;;;11.45;3.50;;;2.70;99.90;;;;;;5029430;28;20030;-67
2022/04/09 03:01:17;;;;;;;6.63;4.10;;;2.70;99.90;;;;;;5029523;28;20034;-67
2022/04/09 03:03:42;;;;;;;6.60;4.05;;;2.70;99.90;;;;;;5029210;28;20387;-67
2022/04/09 03:06:08;;;;;;;5.82;3.97;;;2.70;99.90;;;;;;5015131;28;20442;-67
2022/04/09 03:08:34;;;;;;;6.60;3.83;;;2.70;99.90;;;;;;5032877;28;20018;-67
2022/04/09 03:11:00;;;;;;;7.55;4.35;;;2.80;99.90;;;;;;5032838;28;20033;-67
2022/04/09 03:13:25;;;;;;;7.05;4.32;;;2.90;99.90;;;;;;5032930;28;20017;-67
2022/04/09 03:15:51;;;;;;;9.25;4.07;;;3.00;99.90;;;;;;5033156;28;20030;-67
2022/04/09 03:18:16;;;;;;;6.57;3.78;;;3.00;99.90;;;;;;5033055;28;20087;-68
2022/04/09 03:20:42;;;;;;;8.85;4.65;;;2.90;99.90;;;;;;5032870;28;20049;-68
2022/04/09 03:23:08;;;;;;;8.93;4.05;;;2.80;99.90;;;;;;5030458;28;20492;-67
2022/04/09 03:25:33;;;;;;;7.82;4.63;;;2.60;99.90;;;;;;5029324;28;20029;-68
2022/04/09 03:27:59;;;;;;;6.18;4.07;;;2.40;99.90;;;;;;5029572;28;20033;-68
2022/04/09 03:30:25;;;;;;;8.88;4.60;;;2.30;99.90;;;;;;5011783;28;20496;-68
2022/04/09 03:32:51;;;;;;;8.30;4.50;;;2.20;99.90;;;;;;5029558;28;20061;-68
2022/04/09 03:35:16;;;;;;;8.68;4.35;;;2.10;99.90;;;;;;5031629;28;20021;-68
2022/04/09 03:37:42;;;;;;;9.48;5.53;;;2.00;99.90;;;;;;5032461;28;20032;-68
2022/04/09 03:40:09;;;;;;;8.70;5.18;;;2.00;99.90;;;;;;5031917;28;20025;-68
2022/04/09 03:42:35;;;;;;;10.10;5.82;;;2.00;99.90;;;;;;5032198;28;20026;-68
2022/04/09 03:45:00;;;;;;;9.15;5.45;;;2.00;99.90;;;;;;5032369;28;20091;-67
2022/04/09 03:47:26;;;;;;;9.30;5.35;;;1.90;99.90;;;;;;5032635;28;20033;-68
2022/04/09 03:49:52;;;;;;;9.95;5.97;;;1.90;99.90;;;;;;5032342;28;20455;-67
2022/04/09 03:52:17;;;;;;;12.40;6.20;;;1.90;99.90;;;;;;5031988;28;20028;-67
2022/04/09 03:54:43;;;;;;;9.77;5.35;;;1.90;99.90;;;;;;5032457;28;20033;-67
2022/04/09 03:57:09;;;;;;;9.70;5.75;;;1.80;99.90;;;;;;5032040;28;20049;-68
2022/04/09 03:59:35;;;;;;;10.15;5.10;;;1.80;99.90;;;;;;5032403;28;20084;-68
2022/04/09 04:02:01;;;;;;;8.10;5.00;;;1.80;99.90;;;;;;5031965;28;20035;-67
2022/04/09 04:04:27;;;;;;;11.85;5.53;;;1.80;99.90;;;;;;5032075;28;20025;-68
2022/04/09 04:06:52;;;;;;;11.43;5.55;;;1.80;99.90;;;;;;5032145;28;20049;-67
2022/04/09 04:09:18;;;;;;;12.38;6.28;;;1.80;99.90;;;;;;5032028;28;20176;-68
2022/04/09 04:11:44;;;;;;;9.55;5.00;;;1.70;99.90;;;;;;5031880;28;20029;-67
2022/04/09 04:14:11;;;;;;;10.82;5.28;;;1.80;99.90;;;;;;5031939;28;20362;-68
2022/04/09 04:16:37;;;;;;;10.38;5.85;;;1.70;99.90;;;;;;5029539;28;20030;-67
2022/04/09 04:19:03;;;;;;;7.97;5.25;;;1.80;99.90;;;;;;5029013;28;20404;-67
2022/04/09 04:21:29;;;;;;;10.13;5.55;;;1.80;99.90;;;;;;5029659;28;20026;-67
2022/04/09 04:23:54;;;;;;;10.90;6.32;;;1.80;99.90;;;;;;5031132;28;20518;-67
2022/04/09 04:26:20;;;;;;;10.70;6.22;;;1.90;99.90;;;;;;5031489;28;20018;-67
2022/04/09 04:28:48;;;;;;;10.65;6.53;;;1.90;99.90;;;;;;5031696;28;20037;-67
2022/04/09 04:31:18;;;;;;;10.02;5.55;;;1.90;99.90;;;;;;5030036;28;20029;-67
2022/04/09 04:33:44;;;;;;;10.80;6.03;;;1.90;99.90;;;;;;5028541;28;20013;-67
2022/04/09 04:36:10;;;;;;;9.85;5.93;;;1.90;99.90;;;;;;5028265;28;20033;-67
2022/04/09 04:38:35;;;;;;;11.30;6.20;;;1.90;99.90;;;;;;5030460;28;20032;-67
2022/04/09 04:41:04;;;;;;;10.82;5.82;;;2.00;99.90;;;;;;5031346;28;20025;-67
2022/04/09 04:43:30;;;;;;;9.15;5.55;;;2.00;99.90;;;;;;5031227;28;20029;-67
2022/04/09 04:45:56;;;;;;;10.60;6.15;;;2.00;99.90;;;;;;5031233;28;20034;-67
2022/04/09 04:48:22;;;;;;;10.70;6.13;;;2.10;99.90;;;;;;5031175;28;20101;-67
2022/04/09 04:50:48;;;;;;;11.00;5.55;;;2.00;99.90;;;;;;5031210;28;20048;-67
2022/04/09 04:53:14;;;;;;;9.68;5.88;;;1.90;99.90;;;;;;5030962;28;20025;-67
2022/04/09 04:55:39;;;;;;;11.00;6.68;;;1.90;99.90;;;;;;5030883;28;20049;-67
2022/04/09 04:58:05;;;;;;;11.80;6.20;;;1.80;99.90;;;;;;5031083;28;20318;-67
2022/04/09 05:00:31;;;;;;;10.35;6.60;;;1.70;99.90;;;;;;5030815;28;20025;-67
2022/04/09 05:02:58;;;;;;;11.30;6.38;;;1.70;99.90;;;;;;5027724;28;20096;-67
2022/04/09 05:05:24;;;;;;;16.35;6.55;;;1.70;99.90;;;;;;5027836;28;20041;-67
2022/04/09 05:07:51;;;;;;;12.38;6.35;;;1.70;99.90;;;;;;5027582;28;20033;-67
2022/04/09 05:10:19;;;;;;;12.23;7.03;;;1.70;99.90;;;;;;5027531;28;20139;-67
2022/04/09 05:12:45;;;;;;;12.07;6.95;;;1.60;99.90;;;;;;5029972;28;20037;-67
2022/04/09 05:15:13;;;;;;;11.98;6.13;;;1.60;99.90;;;;;;5030877;28;20025;-67
2022/04/09 05:17:39;;;;;;;14.93;7.80;;;1.50;99.90;;;;;;5030898;28;20091;-67
2022/04/09 05:20:06;;;;;;;16.88;6.57;;;1.50;99.90;;;;;;5030659;28;20357;-67
2022/04/09 05:22:32;;;;;;;17.38;8.07;;;1.50;99.90;;;;;;5030024;28;20049;-69
2022/04/09 05:24:58;;;;;;;12.57;6.63;;;1.50;99.90;;;;;;5030634;28;20044;-69
2022/04/09 05:27:24;;;;;;;13.90;7.25;;;1.50;99.90;;;;;;5029751;28;20021;-67
2022/04/09 05:29:50;;;;;;;12.68;7.10;;;1.50;99.90;;;;;;5030657;28;20040;-67
2022/04/09 05:32:17;;;;;;;12.15;7.47;;;1.50;99.90;;;;;;5030398;28;20036;-67
2022/04/09 05:34:43;;;;;;;15.10;7.85;;;1.60;99.90;;;;;;5030094;28;20102;-67
2022/04/09 05:37:09;;;;;;;15.57;8.18;;;1.60;99.90;;;;;;5030094;28;20148;-67
2022/04/09 05:39:35;;;;;;;11.77;6.85;;;1.60;99.90;;;;;;5030273;28;20487;-67
2022/04/09 05:42:01;;;;;;;13.75;7.40;;;1.70;99.90;;;;;;5028011;28;20116;-67
2022/04/09 05:44:26;;;;;;;14.57;8.30;;;1.80;99.90;;;;;;5027132;28;20788;-67
2022/04/09 05:46:52;;;;;;;15.93;8.23;;;1.80;99.90;;;;;;5027135;28;20037;-67
2022/04/09 05:49:18;;;;;;;12.90;7.28;;;1.80;99.90;;;;;;5026554;28;20100;-67
2022/04/09 05:51:44;;;;;;;14.18;8.23;;;1.80;99.90;;;;;;5028447;28;20029;-67
2022/04/09 05:54:10;;;;;;;13.05;7.35;;;1.80;99.90;;;;;;5030114;28;20025;-67
2022/04/09 05:56:36;;;;;;;14.82;8.10;;;1.80;99.90;;;;;;5012434;28;20033;-67
2022/04/09 05:59:02;;;;;;;13.13;7.70;;;1.90;99.90;;;;;;5030155;28;20025;-68
2022/04/09 06:01:28;;;;;;;14.07;7.95;;;2.00;99.90;;;;;;5028286;28;20022;-67
2022/04/09 06:03:55;;;;;;;14.43;8.13;;;2.00;99.90;;;;;;5026816;28;20041;-68
2022/04/09 06:06:22;;;;;;;16.50;7.75;;;2.10;99.90;;;;;;5026891;28;20030;-69
2022/04/09 06:08:48;;;;;;;16.30;7.65;;;2.20;99.90;;;;;;5026908;28;20025;-68
2022/04/09 06:11:14;;;;;;;14.38;7.53;;;2.30;99.90;;;;;;5027489;28;20025;-68
2022/04/09 06:13:40;;;;;;;14.63;8.02;;;2.30;99.90;;;;;;5029677;28;20030;-68
2022/04/09 06:16:08;;;;;;;17.58;7.93;;;2.40;99.90;;;;;;5028377;28;20029;-68
2022/04/09 06:18:37;;;;;;;10.73;6.93;;;2.40;99.90;;;;;;5026517;28;20107;-68
2022/04/09 06:21:04;;;;;;;14.02;7.95;;;2.50;99.90;;;;;;5027225;28;20034;-68
2022/04/09 06:23:29;;;;;;;16.15;7.93;;;2.60;99.90;;;;;;5027439;28;20046;-67
2022/04/09 06:25:55;;;;;;;15.50;8.70;;;2.70;99.90;;;;;;5026566;28;20025;-67
2022/04/09 06:28:21;;;;;;;15.00;7.85;;;2.80;99.90;;;;;;5027022;28;20029;-67
2022/04/09 06:30:46;;;;;;;12.75;7.38;;;2.90;99.90;;;;;;5029637;28;20041;-67
2022/04/09 06:33:12;;;;;;;13.40;6.95;;;3.00;99.90;;;;;;5026691;28;20029;-67
2022/04/09 06:35:37;;;;;;;12.80;7.13;;;3.10;99.90;;;;;;5026337;28;20053;-67
2022/04/09 06:38:03;;;;;;;13.98;7.28;;;3.10;99.90;;;;;;5026465;28;20365;-67
2022/04/09 06:40:29;;;;;;;14.13;7.53;;;3.20;99.90;;;;;;5030663;28;20021;-67
2022/04/09 06:42:56;;;;;;;14.60;7.93;;;3.40;99.90;;;;;;5030479;28;20073;-68
2022/04/09 06:45:22;;;;;;;12.27;6.70;;;3.70;99.90;;;;;;5030655;28;20025;-67
2022/04/09 06:47:47;;;;;;;14.02;7.18;;;3.90;99.90;;;;;;5032206;28;20029;-67
2022/04/09 06:50:16;;;;;;;10.95;5.80;;;4.10;99.90;;;;;;5033257;28;20372;-67
2022/04/09 06:52:41;;;;;;;11.80;6.63;;;4.40;99.90;;;;;;5033229;28;20205;-67
2022/04/09 06:55:11;;;;;;;12.02;6.57;;;4.70;99.90;;;;;;5033334;28;20408;-68
2022/04/09 06:57:38;;;;;;;10.73;6.10;;;4.90;99.90;;;;;;5033171;28;20022;-68
2022/04/09 07:00:07;;;;;;;11.55;6.13;;;5.10;99.90;;;;;;5028301;28;20072;-68
2022/04/09 07:02:33;;;;;;;10.45;6.32;;;5.30;99.90;;;;;;5012770;28;20536;-68
2022/04/09 07:04:59;;;;;;;8.07;4.88;;;5.70;99.90;;;;;;5017997;28;20050;-68
2022/04/09 07:07:26;;;;;;;8.68;4.43;;;6.30;98.20;;;;;;5018833;28;20057;-68
2022/04/09 07:10:15;;;;;;;10.32;4.13;;;7.20;94.90;;;;;;5016596;28;20022;-70
2022/04/09 07:12:41;;;;;;;7.57;4.07;;;8.10;92.20;;;;;;4993193;28;20377;-68
2022/04/09 07:15:07;;;;;;;7.32;3.92;;;9.10;87.90;;;;;;5013079;28;20113;-68
2022/04/09 07:17:33;;;;;;;6.85;3.97;;;9.70;83.30;;;;;;5013102;28;20488;-68
2022/04/09 07:20:07;;;;;;;6.55;3.80;;;10.10;79.60;;;;;;5013173;28;20029;-68
2022/04/09 07:22:37;;;;;;;7.32;3.80;;;10.80;75.70;;;;;;5028291;28;20084;-69
2022/04/09 07:25:04;;;;;;;6.82;4.07;;;11.30;70.50;;;;;;5032614;28;20518;-68
2022/04/09 07:27:38;;;;;;;5.82;3.45;;;11.20;69.60;;;;;;5032608;28;20342;-68
2022/04/09 07:30:06;;;;;;;6.95;3.50;;;11.60;63.40;;;;;;5032738;28;20527;-68
2022/04/09 07:32:31;;;;;;;5.88;3.03;;;11.70;57.70;;;;;;5032478;28;20028;-67
2022/04/09 07:34:57;;;;;;;4.50;3.70;;;11.80;53.80;;;;;;5032546;28;20034;-68
2022/04/09 07:37:23;;;;;;;4.45;3.50;;;11.90;53.80;;;;;;5029266;28;20076;-71
2022/04/09 07:39:49;;;;;;;7.55;3.83;;;12.30;51.60;;;;;;5029322;28;20064;-69
2022/04/09 07:42:14;;;;;;;5.07;3.40;;;12.60;50.20;;;;;;5031078;28;20061;-70
2022/04/09 07:44:40;;;;;;;6.18;3.60;;;12.90;48.30;;;;;;5032866;28;20045;-68
2022/04/09 07:47:06;;;;;;;6.50;3.90;;;13.10;47.50;;;;;;5032583;28;20014;-69
2022/04/09 07:49:31;;;;;;;6.22;3.90;;;13.40;45.90;;;;;;5032065;28;20037;-69
2022/04/09 07:51:57;;;;;;;5.68;3.67;;;13.90;43.90;;;;;;5031500;28;20044;-69
2022/04/09 07:54:24;;;;;;;5.93;3.42;;;14.20;44.00;;;;;;5032153;28;20029;-70
2022/04/09 07:56:50;;;;;;;4.82;3.25;;;14.20;40.70;;;;;;5029826;28;20025;-70
2022/04/09 07:59:16;;;;;;;4.95;3.70;;;14.70;38.50;;;;;;5010994;28;20388;-69
2022/04/09 08:01:41;;;;;;;4.85;3.20;;;14.80;38.00;;;;;;5028798;28;20460;-69
2022/04/09 08:04:07;;;;;;;5.00;3.05;;;15.00;37.60;;;;;;5028570;28;20044;-70
2022/04/09 08:06:33;;;;;;;5.35;2.97;;;15.40;36.00;;;;;;5030016;28;20033;-70
2022/04/09 08:08:58;;;;;;;4.55;3.00;;;15.50;34.70;;;;;;5031228;28;20034;-69
2022/04/09 08:11:24;;;;;;;6.82;3.72;;;15.50;33.10;;;;;;5031685;28;20033;-69
2022/04/09 08:13:50;;;;;;;6.60;3.50;;;15.80;32.80;;;;;;5032005;28;20025;-67
2022/04/09 08:16:15;;;;;;;5.60;3.10;;;15.90;32.80;;;;;;5032206;28;20025;-67
2022/04/09 08:18:41;;;;;;;6.68;3.30;;;15.60;32.10;;;;;;5031884;28;20455;-67
2022/04/09 08:21:07;;;;;;;6.15;3.25;;;15.70;31.60;;;;;;5031764;28;20029;-67
2022/04/09 08:23:32;;;;;;;6.05;3.20;;;15.80;32.80;;;;;;5031385;28;20041;-67
2022/04/09 08:25:58;;;;;;;5.38;2.80;;;16.30;33.00;;;;;;5031672;28;20022;-67
2022/04/09 08:28:26;;;;;;;5.75;2.85;;;17.10;31.00;;;;;;5029401;28;20049;-66
2022/04/09 08:30:52;;;;;;;5.95;3.78;;;18.10;28.30;;;;;;5028352;28;20037;-67
2022/04/09 08:33:19;;;;;;;4.85;2.75;;;18.50;26.40;;;;;;5028713;28;20029;-67
2022/04/09 08:35:44;;;;;;;6.03;3.08;;;19.00;25.60;;;;;;5028674;28;20052;-67
2022/04/09 08:38:10;;;;;;;5.55;3.80;;;19.70;23.70;;;;;;5028442;28;20026;-68
2022/04/09 08:40:38;;;;;;;4.57;3.13;;;20.00;23.30;;;;;;5028100;28;20096;-66
2022/04/09 08:43:04;;;;;;;10.02;3.22;;;20.30;23.30;;;;;;5027766;28;20441;-66
2022/04/09 08:45:40;;;;;;;3.55;2.50;;;21.00;22.90;;;;;;5028406;28;20037;-66
2022/04/09 08:48:07;;;;;;;6.72;3.00;;;21.40;21.80;;;;;;5015166;28;20030;-66
2022/04/09 08:50:35;;;;;;;4.20;3.13;;;21.60;21.30;;;;;;5008479;28;20190;-66
2022/04/09 08:53:06;;;;;;;5.00;2.70;;;22.40;20.50;;;;;;5027171;28;20041;-67
2022/04/09 08:55:33;;;;;;;3.58;2.63;;;22.60;20.10;;;;;;5027922;28;20104;-67
2022/04/09 08:57:59;;;;;;;5.50;2.65;;;22.70;20.10;;;;;;5028010;28;20037;-66
2022/04/09 09:00:25;;;;;;;3.20;2.67;;;23.30;18.90;;;;;;5027757;28;20040;-66
2022/04/09 09:02:55;;;;;;;6.28;2.90;;;23.80;19.10;;;;;;5026838;28;20515;-67
2022/04/09 09:05:52;;;;;;;6.30;3.10;;;23.90;17.70;;;;;;5027846;28;20028;-66
2022/04/09 09:08:35;;;;;;;4.20;2.60;;;24.40;18.10;;;;;;5026478;28;20047;-67
2022/04/09 09:11:01;;;;;;;3.83;2.78;;;24.90;16.90;;;;;;5027838;28;20048;-67
2022/04/09 09:13:26;;;;;;;3.85;2.67;;;25.70;16.90;;;;;;5027609;28;20025;-73
2022/04/09 09:15:55;;;;;;;3.25;2.78;;;25.70;15.80;;;;;;5027808;28;20041;-70
2022/04/09 09:18:26;;;;;;;4.53;2.53;;;25.70;15.80;;;;;;5027572;28;20033;-70
2022/04/09 09:20:55;;;;;;;3.70;2.40;;;26.10;15.80;;;;;;5027604;28;20057;-70
2022/04/09 09:23:24;;;;;;;3.35;2.22;;;26.60;15.00;;;;;;5027007;28;20427;-72
2022/04/09 09:26:01;;;;;;;5.15;2.10;;;26.90;14.40;;;;;;5027623;28;20057;-73
2022/04/09 09:28:33;;;;;;;5.38;2.00;;;26.90;13.50;;;;;;5027550;28;20025;-70
2022/04/09 09:30:59;;;;;;;4.18;1.90;;;27.30;14.10;;;;;;5027585;28;20033;-70
2022/04/09 09:33:26;;;;;;;4.90;2.08;;;27.90;13.10;;;;;;5027425;28;20065;-70
2022/04/09 09:35:59;;;;;;;3.05;1.52;;;28.70;12.20;;;;;;5028077;28;20049;-71
2022/04/09 09:38:28;;;;;;;4.85;1.90;;;28.80;11.90;;;;;;5026835;28;20033;-71
2022/04/09 09:40:56;;;;;;;5.03;1.85;;;29.20;11.60;;;;;;5026896;28;20040;-71
2022/04/09 09:43:22;;;;;;;2.60;1.15;;;29.50;10.60;;;;;;5026652;28;20670;-71
2022/04/09 09:45:50;;;;;;;4.15;1.80;;;29.40;10.70;;;;;;5027157;28;20029;-71
2022/04/09 09:48:30;;;;;;;2.97;1.60;;;29.90;10.50;;;;;;5027309;28;20075;-72
2022/04/09 09:50:57;;;;;;;4.63;2.03;;;30.20;10.70;;;;;;5026769;28;20136;-72
2022/04/09 09:53:34;;;;;;;5.10;1.83;;;30.70;9.60;;;;;;5026375;28;20634;-71
2022/04/09 09:56:01;;;;;;;5.07;2.00;;;30.60;9.80;;;;;;5026911;28;20025;-72
2022/04/09 09:58:28;;;;;;;3.88;1.80;;;30.50;9.70;;;;;;5026683;28;20033;-72
2022/04/09 10:00:58;;;;;;;5.15;1.60;;;30.40;9.40;;;;;;5026624;28;20408;-73
2022/04/09 10:03:25;;;;;;;2.35;1.20;;;30.90;9.70;;;;;;5026729;28;20033;-71
2022/04/09 10:05:52;;;;;;;3.10;1.10;;;31.50;8.50;;;;;;5026841;28;20037;-71
2022/04/09 10:08:19;;;;;;;3.30;1.25;;;31.70;8.50;;;;;;5027381;28;20031;-71
2022/04/09 10:10:49;;;;;;;4.07;1.67;;;32.20;8.50;;;;;;5026757;28;20028;-72
2022/04/09 10:13:17;;;;;;;;;;;31.80;7.50;;;;;;5027074;28;20048;-71
2022/04/09 10:15:47;;;;;;;1.92;1.13;;;32.80;7.20;;;;;;5026506;28;19916;-71
2022/04/09 10:18:13;;;;;;;2.88;1.10;;;31.70;5.90;;;;;;5026571;28;20037;-71
2022/04/09 10:20:39;;;;;;;1.55;1.00;;;33.20;7.00;;;;;;5025929;28;20026;-72
2022/04/09 10:23:09;;;;;;;2.55;1.30;;;31.60;6.80;;;;;;5034777;28;20515;-71
2022/04/09 10:25:40;;;;;;;3.25;1.30;;;32.50;5.20;;;;;;5046259;28;20119;-74
2022/04/09 10:28:07;;;;;;;3.27;1.30;;;32.90;6.80;;;;;;5046090;28;20102;-70
2022/04/09 10:30:40;;;;;;;4.55;1.40;;;33.60;6.00;;;;;;5046293;28;20027;-72
2022/04/09 10:33:24;;;;;;;4.32;1.05;;;35.30;5.30;;;;;;5046127;28;20024;-71
2022/04/09 10:35:50;;;;;;;6.15;1.48;;;31.70;4.80;;;;;;5046753;28;20131;-71
2022/04/09 10:38:17;;;;;;;2.35;0.82;;;32.90;6.20;;;;;;5046360;28;20457;-70
2022/04/09 10:40:43;;;;;;;4.03;0.85;;;32.00;4.60;;;;;;5046186;28;20037;-71
2022/04/09 10:43:09;;;;;;;1.40;0.98;;;26.10;5.60;;;;;;5046342;28;20067;-71
2022/04/09 10:46:09;;;;;;;1.83;0.77;;;21.80;10.00;;;;;;5046279;28;20039;-71
2022/04/09 10:48:36;;;;;;;2.50;0.73;;;25.90;10.80;;;;;;5045891;28;20029;-72
2022/04/09 10:51:07;;;;;;;2.35;0.73;;;29.50;7.70;;;;;;5046198;28;20083;-71
2022/04/09 10:53:38;;;;;;;1.65;0.70;;;31.90;6.00;;;;;;5045893;28;20032;-71
2022/04/09 10:56:29;;;;;;;2.03;0.68;;;33.90;4.40;;;;;;5045808;28;20372;-71
2022/04/09 10:59:13;;;;;;;2.50;0.90;;;34.50;4.70;;;;;;5046325;28;20029;-71
2022/04/09 11:01:51;;;;;;;2.72;0.77;;;29.60;3.80;;;;;;5046053;28;20077;-70
2022/04/09 11:07:24;;;;;;;3.00;0.80;;;28.70;6.90;;;;;;5045611;28;20025;-72
2022/04/09 11:10:04;;;;;;;2.05;0.82;;;29.90;7.40;;;;;;5046183;28;20045;-70
2022/04/09 11:12:38;;;;;;;1.77;0.50;;;32.80;4.90;;;;;;5046157;28;20545;-71
2022/04/09 11:15:09;;;;;;;2.50;0.80;;;33.20;4.10;;;;;;5046146;28;20476;-70
2022/04/09 11:17:43;;;;;;;3.40;0.70;;;34.10;3.50;;;;;;5045986;28;20051;-71
2022/04/09 11:20:10;;;;;;;2.53;0.70;;;34.40;2.20;;;;;;5046016;28;20033;-71
2022/04/09 11:22:38;;;;;;;2.58;0.70;;;34.60;1.80;;;;;;5040820;28;20042;-70
2022/04/09 11:25:05;;;;;;;2.42;0.90;;;34.90;2.80;;;;;;5026536;28;20021;-71
2022/04/09 11:27:31;;;;;;;2.10;0.70;;;34.60;2.70;;;;;;5029477;28;20026;-71
2022/04/09 11:29:57;;;;;;;2.90;0.80;;;35.70;2.90;;;;;;5028895;28;20435;-70
2022/04/09 11:32:24;;;;;;;1.92;0.82;;;36.60;1.80;;;;;;5029332;28;20029;-71
2022/04/09 11:34:58;;;;;;;2.17;0.77;;;36.70;1.90;;;;;;5029838;28;20021;-70
2022/04/09 11:37:27;;;;;;;2.60;0.80;;;35.90;1.80;;;;;;5029397;28;20108;-73
2022/04/09 11:39:53;;;;;;;2.58;1.15;;;35.60;2.10;;;;;;5029426;28;20051;-70
2022/04/09 11:42:19;;;;;;;3.58;0.80;;;32.70;2.10;;;;;;5029244;28;20029;-72
2022/04/09 11:44:45;;;;;;;1.85;0.73;;;29.30;3.30;;;;;;5029586;28;20499;-70
2022/04/09 11:47:19;;;;;;;4.63;0.95;;;31.80;4.20;;;;;;5029424;28;20057;-69
2022/04/09 11:49:47;;;;;;;2.38;0.40;;;31.10;2.10;;;;;;5029678;28;20030;-70
2022/04/09 11:52:23;;;;;;;2.60;0.73;;;31.60;2.60;;;;;;5028395;28;20448;-70
2022/04/09 11:54:49;;;;;;;3.92;1.05;;;27.90;4.40;;;;;;5029296;28;20033;-70
2022/04/09 11:57:15;;;;;;;3.42;0.82;;;24.40;6.90;;;;;;5029198;28;20029;-70
2022/04/09 11:59:41;;;;;;;5.00;1.02;;;21.90;9.70;;;;;;5029223;28;20060;-69
2022/04/09 12:02:20;;;;;;;2.30;0.80;;;19.60;12.00;;;;;;5029243;28;20041;-70
2022/04/09 12:04:47;;;;;;;1.92;0.70;;;18.40;14.50;;;;;;5028971;28;20087;-70
2022/04/09 12:07:12;;;;;;;2.15;0.63;;;18.20;14.80;;;;;;5029347;28;20036;-69
2022/04/09 12:09:38;;;;;;;1.77;0.70;;;17.90;15.70;;;;;;5029109;28;20041;-69
2022/04/09 12:12:05;;;;;;;2.80;0.80;;;19.10;13.80;;;;;;5028857;28;20065;-69
2022/04/09 12:14:30;;;;;;;4.80;1.00;;;17.50;15.50;;;;;;5028777;28;20363;-67
2022/04/09 12:16:56;;;;;;;2.38;0.70;;;21.90;15.80;;;;;;5028622;28;20563;-68
2022/04/09 12:19:30;;;;;;;3.85;0.60;;;25.20;9.50;;;;;;5028954;28;20030;-67
2022/04/09 12:22:09;;;;;;;3.13;1.45;;;28.90;7.60;;;;;;5028715;28;20480;-67
2022/04/09 12:24:55;;;;;;;3.17;0.70;;;29.60;7.70;;;;;;5028718;28;20041;-68
2022/04/09 12:27:50;;;;;;;1.95;0.88;;;32.10;5.00;;;;;;5028701;28;20018;-68
2022/04/09 12:30:37;;;;;;;5.40;1.60;;;27.60;6.10;;;;;;5015383;28;20046;-69
2022/04/09 12:33:13;;;;;;;8.57;1.92;;;25.80;9.90;;;;;;5008852;28;20500;-69
2022/04/09 12:35:39;;;;;;;6.38;1.60;;;23.20;14.00;;;;;;5008681;28;20029;-68
2022/04/09 12:38:05;;;;;;;5.45;1.67;;;22.50;15.30;;;;;;5007361;28;20079;-68
2022/04/09 12:40:32;;;;;;;7.75;1.80;;;20.60;16.50;;;;;;5008794;28;20037;-69
2022/04/09 12:43:01;;;;;;;5.35;1.70;;;19.60;17.60;;;;;;5006737;28;20528;-68
2022/04/09 12:45:28;;;;;;;3.67;1.50;;;25.20;17.00;;;;;;5008565;28;20022;-69
2022/04/09 12:47:55;;;;;;;4.50;1.10;;;24.90;11.80;;;;;;5008536;28;20045;-68
2022/04/09 12:50:33;;;;;;;3.35;1.33;;;23.40;13.60;;;;;;5008449;28;20022;-68
2022/04/09 12:53:01;;;;;;;4.55;1.20;;;25.10;11.30;;;;;;5026880;28;20029;-71
2022/04/09 12:55:30;;;;;;;4.88;1.40;;;26.50;12.50;;;;;;5028296;28;20031;-70
2022/04/09 12:57:56;;;;;;;3.05;1.10;;;25.20;11.50;;;;;;5028341;28;20033;-70